createdAt,value
2022-12-20T00:01:53.747Z,53.10
2022-12-20T00:04:22.264Z,59.10
2022-12-20T00:06:50.720Z,49.80
2022-12-20T00:09:19.429Z,57.80
2022-12-20T00:11:48.620Z,50.90
2022-12-20T00:14:18.214Z,49.40
2022-12-20T00:16:46.916Z,51.60
2022-12-20T00:19:15.168Z,46.00
2022-12-20T00:21:43.323Z,57.00
2022-12-20T00:24:11.745Z,58.60
2022-12-20T00:26:40.025Z,57.30
2022-12-20T00:29:08.101Z,52.90
2022-12-20T00:31:36.562Z,52.00
2022-12-20T00:34:04.630Z,52.20
2022-12-20T00:36:33.649Z,49.50
2022-12-20T00:39:02.527Z,51.10
2022-12-20T00:41:33.613Z,51.20
2022-12-20T00:44:02.878Z,48.10
2022-12-20T00:46:31.983Z,45.80
2022-12-20T00:49:00.823Z,48.90
2022-12-20T00:51:30.458Z,47.80
2022-12-20T00:53:58.624Z,51.00
2022-12-20T00:56:26.964Z,47.50
2022-12-20T00:59:00.037Z,54.80
2022-12-20T01:01:31.782Z,49.90
2022-12-20T01:04:01.457Z,50.10
2022-12-20T01:06:31.050Z,40.60
2022-12-20T01:09:00.231Z,42.30
2022-12-20T01:11:36.715Z,52.60
2022-12-20T01:14:15.684Z,48.10
2022-12-20T01:16:46.013Z,52.20
2022-12-20T01:19:17.817Z,57.20
2022-12-20T01:21:46.971Z,45.70
2022-12-20T01:24:17.882Z,52.00
2022-12-20T01:26:47.873Z,45.20
2022-12-20T01:29:16.531Z,55.30
2022-12-20T01:31:44.857Z,57.10
2022-12-20T01:34:13.056Z,39.40
2022-12-20T01:36:42.428Z,51.90
2022-12-20T01:39:14.803Z,57.70
2022-12-20T01:41:45.167Z,58.40
2022-12-20T01:44:19.766Z,58.20
2022-12-20T01:46:49.918Z,59.00
2022-12-20T01:49:32.805Z,54.30
2022-12-20T01:52:07.522Z,54.50
2022-12-20T01:54:41.064Z,53.40
2022-12-20T01:57:20.971Z,57.90
2022-12-20T01:59:52.575Z,52.50
2022-12-20T02:02:21.811Z,56.30
2022-12-20T02:04:50.281Z,52.00
2022-12-20T02:07:24.869Z,57.30
2022-12-20T02:09:55.482Z,54.10
2022-12-20T02:12:26.284Z,50.10
2022-12-20T02:15:14.749Z,49.90
2022-12-20T02:17:55.236Z,52.70
2022-12-20T02:20:38.748Z,48.80
2022-12-20T02:23:37.975Z,54.10
2022-12-20T02:26:15.785Z,48.30
2022-12-20T02:28:59.292Z,53.50
2022-12-20T02:31:34.946Z,54.30
2022-12-20T02:34:06.066Z,49.20
2022-12-20T02:36:34.242Z,67.80
2022-12-20T02:39:02.618Z,52.40
2022-12-20T02:41:38.422Z,50.70
2022-12-20T02:44:30.959Z,52.40
2022-12-20T02:47:02.934Z,54.10
2022-12-20T02:49:34.903Z,57.50
2022-12-20T02:52:04.008Z,52.50
2022-12-20T02:54:33.138Z,45.00
2022-12-20T02:57:10.287Z,53.80
2022-12-20T03:00:04.092Z,51.10
2022-12-20T03:02:54.811Z,48.70
2022-12-20T03:05:25.934Z,50.90
2022-12-20T03:07:54.889Z,53.20
2022-12-20T03:10:24.885Z,48.40
2022-12-20T03:12:53.196Z,54.40
2022-12-20T03:15:21.699Z,50.40
2022-12-20T03:17:50.845Z,43.80
2022-12-20T03:20:19.544Z,50.30
2022-12-20T03:22:47.603Z,47.20
2022-12-20T03:25:15.996Z,36.40
2022-12-20T03:27:44.690Z,32.60
2022-12-20T03:30:13.811Z,48.60
2022-12-20T03:32:42.579Z,56.00
2022-12-20T03:35:13.277Z,57.00
2022-12-20T03:37:42.445Z,55.50
2022-12-20T03:40:12.077Z,53.80
2022-12-20T03:42:40.482Z,63.50
2022-12-20T03:45:08.991Z,63.30
2022-12-20T03:47:37.284Z,64.10
2022-12-20T03:50:07.566Z,61.30
2022-12-20T03:52:36.423Z,59.60
2022-12-20T03:55:06.212Z,59.80
2022-12-20T03:57:41.696Z,70.80
2022-12-20T04:00:22.947Z,81.90
2022-12-20T04:02:52.657Z,85.00
2022-12-20T04:05:22.266Z,84.10
2022-12-20T04:07:50.699Z,76.20
2022-12-20T04:10:19.236Z,76.10
2022-12-20T04:12:47.934Z,75.70
2022-12-20T04:15:17.292Z,68.60
2022-12-20T04:17:46.235Z,50.20
2022-12-20T04:20:20.376Z,60.20
2022-12-20T04:23:14.953Z,48.40
2022-12-20T04:25:43.727Z,53.70
2022-12-20T04:28:12.723Z,49.90
2022-12-20T04:30:40.903Z,52.70
2022-12-20T04:33:09.086Z,57.10
2022-12-20T04:35:38.101Z,50.00
2022-12-20T04:38:06.631Z,49.80
2022-12-20T04:40:35.079Z,48.10
2022-12-20T04:43:06.348Z,48.20
2022-12-20T04:45:34.952Z,52.60
2022-12-20T04:48:28.555Z,53.60
2022-12-20T04:50:53.534Z,37.70
2022-12-20T04:53:41.706Z,46.00
2022-12-20T04:56:10.715Z,49.60
2022-12-20T04:58:39.374Z,28.80
2022-12-20T05:01:09.799Z,32.30
2022-12-20T05:03:44.983Z,52.60
2022-12-20T05:06:14.294Z,46.60
2022-12-20T05:08:43.172Z,51.60
2022-12-20T05:11:12.490Z,51.30
2022-12-20T05:13:41.235Z,50.80
2022-12-20T05:16:09.838Z,45.10
2022-12-20T05:18:40.534Z,58.90
2022-12-20T05:21:31.456Z,68.20
2022-12-20T05:24:18.851Z,50.60
2022-12-20T05:26:54.839Z,55.40
2022-12-20T05:29:23.095Z,53.20
2022-12-20T05:31:51.837Z,52.60
2022-12-20T05:34:20.448Z,68.60
2022-12-20T05:36:52.581Z,65.10
2022-12-20T05:39:22.375Z,59.60
2022-12-20T05:41:51.672Z,62.20
2022-12-20T05:44:22.495Z,61.30
2022-12-20T05:46:54.090Z,53.80
2022-12-20T05:49:26.791Z,54.00
2022-12-20T05:51:55.339Z,72.90
2022-12-20T05:54:26.039Z,57.80
2022-12-20T05:56:58.478Z,55.60
2022-12-20T05:59:33.846Z,55.90
2022-12-20T06:02:04.251Z,54.50
2022-12-20T06:04:33.618Z,54.40
2022-12-20T06:07:05.950Z,59.50
2022-12-20T06:09:34.817Z,54.60
2022-12-20T06:12:08.026Z,65.30
2022-12-20T06:14:36.928Z,63.10
2022-12-20T06:17:05.051Z,67.20
2022-12-20T06:19:33.852Z,68.90
2022-12-20T06:22:02.309Z,70.40
2022-12-20T06:24:57.075Z,80.50
2022-12-20T06:27:29.612Z,52.20
2022-12-20T06:30:09.815Z,89.60
2022-12-20T06:33:01.140Z,87.10
2022-12-20T06:35:31.039Z,69.00
2022-12-20T06:38:00.324Z,78.60
2022-12-20T06:40:32.106Z,79.70
2022-12-20T06:43:02.514Z,79.80
2022-12-20T06:45:33.581Z,71.00
2022-12-20T06:48:06.174Z,59.30
2022-12-20T06:50:36.442Z,75.90
2022-12-20T06:53:05.009Z,70.40
2022-12-20T06:55:33.659Z,70.20
2022-12-20T06:58:01.952Z,75.70
2022-12-20T07:00:30.056Z,85.20
2022-12-20T07:02:58.471Z,80.60
2022-12-20T07:05:26.838Z,80.70
2022-12-20T07:07:55.114Z,80.20
2022-12-20T07:10:23.732Z,76.00
2022-12-20T07:12:53.394Z,84.20
2022-12-20T07:15:22.406Z,90.20
2022-12-20T07:17:51.855Z,77.70
2022-12-20T07:20:20.377Z,90.70
2022-12-20T07:22:49.566Z,78.80
2022-12-20T07:25:18.027Z,80.20
2022-12-20T07:27:52.480Z,83.50
2022-12-20T07:30:21.623Z,74.70
2022-12-20T07:32:49.990Z,74.50
2022-12-20T07:35:18.628Z,80.80
2022-12-20T07:37:46.804Z,84.90
2022-12-20T07:40:16.537Z,80.70
2022-12-20T07:42:48.886Z,68.30
2022-12-20T07:45:17.837Z,77.50
2022-12-20T07:47:46.367Z,78.30
2022-12-20T07:50:15.031Z,53.60
2022-12-20T07:52:47.284Z,64.30
2022-12-20T07:55:16.677Z,76.20
2022-12-20T07:57:55.094Z,82.30
2022-12-20T08:00:23.903Z,85.90
2022-12-20T08:02:58.743Z,97.20
2022-12-20T08:07:59.870Z,86.50
2022-12-20T08:10:29.160Z,96.10
2022-12-20T08:12:59.171Z,102.70
2022-12-20T08:15:29.791Z,94.80
2022-12-20T08:17:58.596Z,105.30
2022-12-20T08:20:27.402Z,104.90
2022-12-20T08:22:55.750Z,95.30
2022-12-20T08:25:24.562Z,98.20
2022-12-20T08:27:53.403Z,100.50
2022-12-20T08:30:22.389Z,109.00
2022-12-20T08:32:51.388Z,104.80
2022-12-20T08:35:20.058Z,109.80
2022-12-20T08:37:52.175Z,82.60
2022-12-20T08:40:22.165Z,123.10
2022-12-20T08:42:50.978Z,139.70
2022-12-20T08:45:20.409Z,108.10
2022-12-20T08:47:49.132Z,134.70
2022-12-20T08:50:20.260Z,108.70
2022-12-20T08:52:50.076Z,108.40
2022-12-20T08:55:22.086Z,125.80
2022-12-20T08:57:54.939Z,131.10
2022-12-20T09:00:23.784Z,116.10
2022-12-20T09:02:57.832Z,115.30
2022-12-20T09:05:29.596Z,122.00
2022-12-20T09:07:58.477Z,113.00
2022-12-20T09:10:27.266Z,116.80
2022-12-20T09:12:56.134Z,73.10
2022-12-20T09:15:26.225Z,92.10
2022-12-20T09:17:55.888Z,93.20
2022-12-20T09:20:25.919Z,73.30
2022-12-20T09:22:55.027Z,83.00
2022-12-20T09:25:24.044Z,74.90
2022-12-20T09:27:55.288Z,84.00
2022-12-20T09:30:24.256Z,71.60
2022-12-20T09:32:52.950Z,77.50
2022-12-20T09:35:23.411Z,77.50
2022-12-20T09:41:59.908Z,71.30
2022-12-20T09:44:39.125Z,64.00
2022-12-20T09:47:10.878Z,58.10
2022-12-20T09:49:44.329Z,64.30
2022-12-20T09:52:48.599Z,74.30
2022-12-20T09:55:31.896Z,73.00
2022-12-20T09:58:18.287Z,74.00
2022-12-20T10:00:53.947Z,63.50
2022-12-20T10:03:29.810Z,70.20
2022-12-20T10:08:29.307Z,49.80
2022-12-20T10:11:04.697Z,64.70
2022-12-20T10:16:08.240Z,66.40
2022-12-20T10:21:57.858Z,54.70
2022-12-20T10:24:34.765Z,51.60
2022-12-20T10:27:17.003Z,61.10
2022-12-20T10:29:46.947Z,73.10
2022-12-20T10:32:24.569Z,67.20
2022-12-20T10:35:17.071Z,62.50
2022-12-20T10:38:09.387Z,74.80
2022-12-20T10:43:48.700Z,55.60
2022-12-20T10:46:18.662Z,79.50
2022-12-20T10:48:48.750Z,58.90
2022-12-20T10:51:22.438Z,79.10
2022-12-20T10:53:58.004Z,74.10
2022-12-20T10:56:29.231Z,72.50
2022-12-20T10:59:01.785Z,81.50
2022-12-20T11:01:44.917Z,73.00
2022-12-20T11:04:30.882Z,72.40
2022-12-20T11:07:01.156Z,71.00
2022-12-20T11:09:35.839Z,69.80
2022-12-20T11:12:16.684Z,68.50
2022-12-20T11:14:49.255Z,65.90
2022-12-20T11:17:42.860Z,54.90
2022-12-20T11:20:33.206Z,54.70
2022-12-20T11:23:22.705Z,42.50
2022-12-20T11:25:55.337Z,46.70
2022-12-20T11:29:10.249Z,48.00
2022-12-20T11:32:14.446Z,53.00
2022-12-20T11:34:58.082Z,39.80
2022-12-20T11:37:32.935Z,47.00
2022-12-20T11:40:16.852Z,41.60
2022-12-20T11:42:58.145Z,57.60
2022-12-20T11:46:01.428Z,61.60
2022-12-20T11:48:41.089Z,56.40
2022-12-20T11:51:46.123Z,54.80
2022-12-20T11:54:27.339Z,52.40
2022-12-20T11:57:07.759Z,40.90
2022-12-20T11:59:52.519Z,47.30
2022-12-20T12:02:32.221Z,43.30
2022-12-20T12:05:07.912Z,44.40
2022-12-20T12:07:41.575Z,52.40
2022-12-20T12:10:17.038Z,44.70
2022-12-20T12:15:16.937Z,31.50
2022-12-20T12:18:13.280Z,48.60
2022-12-20T12:21:09.157Z,25.40
2022-12-20T12:23:44.614Z,28.60
2022-12-20T12:26:20.454Z,36.50
2022-12-20T12:28:56.154Z,19.90
2022-12-20T12:31:43.409Z,44.70
2022-12-20T12:34:36.959Z,41.50
2022-12-20T12:37:19.743Z,48.60
2022-12-20T12:40:29.665Z,42.70
2022-12-20T12:43:17.134Z,43.80
2022-12-20T12:45:57.642Z,40.70
2022-12-20T12:48:45.701Z,42.10
2022-12-20T12:51:20.788Z,42.10
2022-12-20T12:53:52.612Z,37.70
2022-12-20T12:56:43.413Z,45.50
2022-12-20T12:59:13.305Z,44.10
2022-12-20T13:01:49.825Z,38.30
2022-12-20T13:04:21.678Z,39.70
2022-12-20T13:06:58.970Z,37.70
2022-12-20T13:09:28.235Z,34.30
2022-12-20T13:12:02.482Z,32.80
2022-12-20T13:14:37.457Z,43.20
2022-12-20T13:17:12.698Z,44.20
2022-12-20T13:19:53.947Z,39.40
2022-12-20T13:22:26.933Z,53.30
2022-12-20T13:25:03.639Z,43.50
2022-12-20T13:27:40.813Z,47.30
2022-12-20T13:30:13.738Z,45.30
2022-12-20T13:32:48.786Z,54.00
2022-12-20T13:35:29.624Z,44.50
2022-12-20T13:38:25.391Z,46.20
2022-12-20T13:41:00.663Z,41.50
2022-12-20T13:46:10.603Z,43.50
2022-12-20T13:48:39.302Z,41.10
2022-12-20T13:51:09.246Z,43.10
2022-12-20T13:53:39.823Z,24.10
2022-12-20T13:56:48.398Z,43.20
2022-12-20T13:59:31.971Z,43.90
2022-12-20T14:02:05.584Z,42.30
2022-12-20T14:04:44.452Z,46.60
2022-12-20T14:07:17.233Z,55.70
2022-12-20T14:09:55.200Z,50.40
2022-12-20T14:12:29.985Z,49.20
2022-12-20T14:15:01.529Z,55.80
2022-12-20T14:17:33.500Z,51.90
2022-12-20T14:20:30.150Z,45.30
2022-12-20T14:23:13.677Z,45.50
2022-12-20T14:25:51.652Z,44.30
2022-12-20T14:28:35.821Z,43.00
2022-12-20T14:31:06.306Z,49.70
2022-12-20T14:33:43.054Z,50.50
2022-12-20T14:36:20.631Z,51.80
2022-12-20T14:38:53.950Z,56.60
2022-12-20T14:41:29.129Z,72.30
2022-12-20T14:44:02.592Z,58.10
2022-12-20T14:46:32.217Z,58.60
2022-12-20T14:49:22.589Z,53.30
2022-12-20T14:52:05.617Z,59.10
2022-12-20T14:57:31.425Z,49.90
2022-12-20T15:00:07.647Z,60.90
2022-12-20T15:02:41.021Z,66.90
2022-12-20T15:05:39.046Z,56.20
2022-12-20T15:08:14.611Z,58.30
2022-12-20T15:11:11.157Z,69.10
2022-12-20T15:13:51.716Z,59.70
2022-12-20T15:16:50.026Z,60.80
2022-12-20T15:19:19.327Z,56.00
2022-12-20T15:21:48.362Z,52.10
2022-12-20T15:24:22.040Z,57.40
2022-12-20T15:26:50.653Z,56.10
2022-12-20T15:29:29.323Z,63.30
2022-12-20T15:32:14.804Z,51.60
2022-12-20T15:34:43.707Z,58.00
2022-12-20T15:37:18.252Z,59.30
2022-12-20T15:39:47.318Z,52.90
2022-12-20T15:42:19.101Z,58.80
2022-12-20T15:44:48.495Z,51.40
2022-12-20T15:47:17.664Z,57.80
2022-12-20T15:49:50.251Z,59.40
2022-12-20T15:52:22.683Z,57.30
2022-12-20T15:54:51.408Z,56.20
2022-12-20T15:57:21.213Z,56.70
2022-12-20T16:00:01.213Z,62.40
2022-12-20T16:02:31.652Z,56.40
2022-12-20T16:05:00.845Z,54.60
2022-12-20T16:07:29.483Z,52.70
2022-12-20T16:09:58.361Z,58.30
2022-12-20T16:12:35.226Z,54.10
2022-12-20T16:15:05.084Z,62.00
2022-12-20T16:17:33.695Z,54.30
2022-12-20T16:20:02.426Z,50.10
2022-12-20T16:22:32.079Z,54.60
2022-12-20T16:25:00.740Z,60.50
2022-12-20T16:27:30.342Z,64.30
2022-12-20T16:29:58.849Z,53.30
2022-12-20T16:32:27.532Z,59.30
2022-12-20T16:34:56.087Z,57.50
2022-12-20T16:37:25.634Z,50.40
2022-12-20T16:39:54.178Z,58.10
2022-12-20T16:42:22.901Z,55.90
2022-12-20T16:44:53.874Z,63.90
2022-12-20T16:47:22.825Z,55.30
2022-12-20T16:49:53.633Z,73.00
2022-12-20T16:52:23.297Z,58.40
2022-12-20T16:54:52.297Z,58.80
2022-12-20T16:57:21.888Z,59.10
2022-12-20T16:59:50.774Z,60.70
2022-12-20T17:02:33.336Z,67.50
2022-12-20T17:05:03.276Z,78.70
2022-12-20T17:07:36.557Z,71.70
2022-12-20T17:10:12.759Z,71.40
2022-12-20T17:12:41.625Z,74.70
2022-12-20T17:15:25.996Z,85.10
2022-12-20T17:17:55.558Z,82.70
2022-12-20T17:20:25.454Z,95.30
2022-12-20T17:22:56.456Z,97.40
2022-12-20T17:25:34.392Z,82.20
2022-12-20T17:28:03.635Z,83.40
2022-12-20T17:30:32.613Z,76.00
2022-12-20T17:33:01.193Z,67.80
2022-12-20T17:35:32.829Z,89.20
2022-12-20T17:38:02.209Z,76.20
2022-12-20T17:40:30.759Z,63.80
2022-12-20T17:42:59.601Z,66.90
2022-12-20T17:45:31.666Z,70.30
2022-12-20T17:48:00.188Z,72.00
2022-12-20T17:50:29.188Z,62.00
2022-12-20T17:52:57.971Z,67.20
2022-12-20T17:55:28.590Z,66.30
2022-12-20T17:57:57.621Z,67.60
2022-12-20T18:00:38.872Z,64.70
2022-12-20T18:03:07.697Z,72.40
2022-12-20T18:05:40.592Z,72.00
2022-12-20T18:08:09.107Z,69.50
2022-12-20T18:10:37.234Z,80.90
2022-12-20T18:13:05.802Z,60.20
2022-12-20T18:15:33.924Z,59.20
2022-12-20T18:18:02.135Z,66.70
2022-12-20T18:20:30.389Z,67.40
2022-12-20T18:22:58.736Z,76.00
2022-12-20T18:25:27.426Z,71.80
2022-12-20T18:27:55.852Z,74.70
2022-12-20T18:30:24.008Z,75.20
2022-12-20T18:32:52.230Z,95.30
2022-12-20T18:35:20.596Z,83.90
2022-12-20T18:37:48.890Z,88.10
2022-12-20T18:40:17.046Z,82.70
2022-12-20T18:42:45.211Z,87.90
2022-12-20T18:45:13.502Z,86.00
2022-12-20T18:47:41.973Z,88.30
2022-12-20T18:50:12.136Z,88.20
2022-12-20T18:52:42.589Z,83.60
2022-12-20T18:55:15.900Z,74.50
2022-12-20T18:57:44.308Z,77.70
2022-12-20T19:00:13.742Z,72.60
2022-12-20T19:02:41.905Z,73.20
2022-12-20T19:05:10.238Z,72.40
2022-12-20T19:07:39.360Z,69.10
2022-12-20T19:10:07.996Z,72.80
2022-12-20T19:12:36.147Z,77.30
2022-12-20T19:15:05.359Z,67.10
2022-12-20T19:17:33.929Z,70.60
2022-12-20T19:20:02.618Z,74.50
2022-12-20T19:22:32.163Z,71.70
2022-12-20T19:25:01.627Z,88.70
2022-12-20T19:27:30.333Z,66.90
2022-12-20T19:29:58.733Z,75.90
2022-12-20T19:32:27.121Z,93.00
2022-12-20T19:34:55.450Z,84.10
2022-12-20T19:37:23.713Z,110.60
2022-12-20T19:39:52.126Z,115.00
2022-12-20T19:42:25.084Z,116.90
2022-12-20T19:44:53.579Z,111.70
2022-12-20T19:47:21.945Z,119.60
2022-12-20T19:49:50.380Z,109.60
2022-12-20T19:52:29.024Z,104.90
2022-12-20T19:54:57.779Z,112.10
2022-12-20T19:57:25.949Z,103.60
2022-12-20T19:59:56.286Z,95.20
2022-12-20T20:02:25.019Z,90.00
2022-12-20T20:04:53.651Z,75.70
2022-12-20T20:07:21.977Z,81.60
2022-12-20T20:09:50.179Z,88.70
2022-12-20T20:12:18.426Z,86.10
2022-12-20T20:14:46.590Z,83.40
2022-12-20T20:17:14.588Z,84.30
2022-12-20T20:19:42.841Z,88.80
2022-12-20T20:22:11.444Z,84.30
2022-12-20T20:24:39.509Z,94.90
2022-12-20T20:27:07.607Z,82.30
2022-12-20T20:29:36.062Z,95.00
2022-12-20T20:32:04.533Z,78.60
2022-12-20T20:34:32.697Z,84.50
2022-12-20T20:37:01.644Z,89.40
2022-12-20T20:39:30.201Z,79.60
2022-12-20T20:41:58.137Z,74.60
2022-12-20T20:44:26.131Z,89.10
2022-12-20T20:46:54.744Z,90.50
2022-12-20T20:49:22.785Z,79.20
2022-12-20T20:51:51.193Z,81.90
2022-12-20T20:54:19.343Z,76.10
2022-12-20T20:56:47.616Z,90.80
2022-12-20T20:59:18.031Z,86.10
2022-12-20T21:01:47.171Z,95.20
2022-12-20T21:04:15.514Z,102.60
2022-12-20T21:06:43.741Z,79.80
2022-12-20T21:09:13.271Z,93.80
2022-12-20T21:11:45.663Z,120.70
2022-12-20T21:14:13.857Z,119.60
2022-12-20T21:16:42.370Z,130.60
2022-12-20T21:19:11.699Z,119.90
2022-12-20T21:21:39.699Z,107.80
2022-12-20T21:24:07.983Z,104.70
2022-12-20T21:26:36.140Z,107.10
2022-12-20T21:29:04.384Z,107.70
2022-12-20T21:31:32.763Z,108.50
2022-12-20T21:34:01.178Z,102.30
2022-12-20T21:36:29.401Z,76.00
2022-12-20T21:38:58.572Z,102.20
2022-12-20T21:41:28.580Z,92.90
2022-12-20T21:43:58.693Z,102.30
2022-12-20T21:46:29.093Z,84.50
2022-12-20T21:48:58.816Z,86.30
2022-12-20T21:51:28.843Z,75.60
2022-12-20T21:53:59.214Z,61.80
2022-12-20T21:56:29.750Z,91.10
2022-12-20T21:58:57.920Z,98.10
2022-12-20T22:01:28.515Z,100.90
2022-12-20T22:04:02.447Z,97.90
2022-12-20T22:06:31.574Z,119.00
2022-12-20T22:09:01.783Z,94.50
2022-12-20T22:11:30.073Z,88.80
2022-12-20T22:13:58.963Z,101.10
2022-12-20T22:16:31.021Z,108.90
2022-12-20T22:19:00.627Z,112.30
2022-12-20T22:21:31.481Z,111.60
2022-12-20T22:24:01.235Z,106.30
2022-12-20T22:26:32.162Z,102.70
2022-12-20T22:29:06.458Z,93.70
2022-12-20T22:31:35.781Z,98.90
2022-12-20T22:34:05.235Z,90.40
2022-12-20T22:36:33.633Z,84.00
2022-12-20T22:39:01.862Z,77.80
2022-12-20T22:41:34.827Z,68.10
2022-12-20T22:44:04.108Z,75.90
2022-12-20T22:46:32.687Z,73.10
2022-12-20T22:49:01.548Z,73.30
2022-12-20T22:51:31.968Z,85.20
2022-12-20T22:54:00.427Z,88.60
2022-12-20T22:56:29.173Z,98.70
2022-12-20T22:58:57.433Z,91.80
2022-12-20T23:01:26.197Z,105.00
2022-12-20T23:03:54.707Z,80.80
2022-12-20T23:06:23.114Z,84.30
2022-12-20T23:08:51.242Z,91.50
2022-12-20T23:11:37.899Z,91.20
2022-12-20T23:14:24.907Z,93.80
2022-12-20T23:16:53.629Z,95.20
2022-12-20T23:19:21.984Z,109.20
2022-12-20T23:22:08.499Z,92.90
2022-12-20T23:24:36.653Z,130.30
2022-12-20T23:27:04.945Z,134.30
2022-12-20T23:29:33.100Z,141.80
2022-12-20T23:32:01.404Z,132.90
2022-12-20T23:34:29.351Z,146.60
2022-12-20T23:36:57.806Z,174.10
2022-12-20T23:39:26.257Z,163.30
2022-12-20T23:41:54.807Z,168.60
2022-12-20T23:44:22.979Z,162.00
2022-12-20T23:46:50.983Z,164.40
2022-12-20T23:49:19.223Z,169.30
2022-12-20T23:51:47.019Z,165.70
2022-12-20T23:54:15.462Z,180.40
2022-12-20T23:56:43.335Z,160.90
2022-12-20T23:59:12.465Z,151.60
